sensor_id;sensor_type;location;lat;lon;timestamp;P1;durP1;ratioP1;P2;durP2;ratioP2
47259;SDS011;32999;52.412;4.890;2023-10-31T00:00:37;8.18;;;3.17;;
47259;SDS011;32999;52.412;4.890;2023-10-31T00:11:18;14.02;;;4.10;;
47259;SDS011;32999;52.412;4.890;2023-10-31T00:16:19;13.25;;;4.40;;
47259;SDS011;32999;52.412;4.890;2023-10-31T00:21:20;17.75;;;4.55;;
47259;SDS011;32999;52.412;4.890;2023-10-31T00:26:23;12.60;;;4.82;;
47259;SDS011;32999;52.412;4.890;2023-10-31T00:31:25;16.90;;;5.47;;
47259;SDS011;32999;52.412;4.890;2023-10-31T00:36:26;13.02;;;4.88;;
47259;SDS011;32999;52.412;4.890;2023-10-31T00:41:29;16.77;;;5.70;;
47259;SDS011;32999;52.412;4.890;2023-10-31T00:46:31;15.57;;;5.88;;
47259;SDS011;32999;52.412;4.890;2023-10-31T00:51:32;19.73;;;6.05;;
47259;SDS011;32999;52.412;4.890;2023-10-31T00:56:35;12.35;;;4.85;;
47259;SDS011;32999;52.412;4.890;2023-10-31T01:01:37;11.43;;;3.53;;
47259;SDS011;32999;52.412;4.890;2023-10-31T01:06:40;9.38;;;3.42;;
47259;SDS011;32999;52.412;4.890;2023-10-31T01:11:43;10.70;;;3.80;;
47259;SDS011;32999;52.412;4.890;2023-10-31T01:16:44;7.30;;;3.88;;
47259;SDS011;32999;52.412;4.890;2023-10-31T01:21:45;11.00;;;4.18;;
47259;SDS011;32999;52.412;4.890;2023-10-31T01:26:48;12.02;;;3.75;;
47259;SDS011;32999;52.412;4.890;2023-10-31T01:31:50;15.70;;;4.30;;
47259;SDS011;32999;52.412;4.890;2023-10-31T01:36:51;12.68;;;3.70;;
47259;SDS011;32999;52.412;4.890;2023-10-31T01:41:54;14.05;;;3.58;;
47259;SDS011;32999;52.412;4.890;2023-10-31T01:46:56;6.25;;;2.47;;
47259;SDS011;32999;52.412;4.890;2023-10-31T01:51:57;6.70;;;2.72;;
47259;SDS011;32999;52.412;4.890;2023-10-31T01:57:00;9.07;;;2.65;;
47259;SDS011;32999;52.412;4.890;2023-10-31T02:02:02;7.05;;;2.47;;
47259;SDS011;32999;52.412;4.890;2023-10-31T02:07:04;8.32;;;2.13;;
47259;SDS011;32999;52.412;4.890;2023-10-31T02:12:07;7.25;;;2.88;;
47259;SDS011;32999;52.412;4.890;2023-10-31T02:17:09;9.18;;;2.85;;
47259;SDS011;32999;52.412;4.890;2023-10-31T02:22:12;6.70;;;1.70;;
47259;SDS011;32999;52.412;4.890;2023-10-31T02:27:13;12.50;;;2.35;;
47259;SDS011;32999;52.412;4.890;2023-10-31T02:32:15;6.97;;;2.38;;
47259;SDS011;32999;52.412;4.890;2023-10-31T02:37:17;11.50;;;1.90;;
47259;SDS011;32999;52.412;4.890;2023-10-31T02:42:19;6.25;;;1.42;;
47259;SDS011;32999;52.412;4.890;2023-10-31T02:47:20;3.90;;;1.30;;
47259;SDS011;32999;52.412;4.890;2023-10-31T02:52:23;4.60;;;1.30;;
47259;SDS011;32999;52.412;4.890;2023-10-31T02:57:25;6.78;;;1.80;;
47259;SDS011;32999;52.412;4.890;2023-10-31T03:02:26;6.65;;;1.55;;
47259;SDS011;32999;52.412;4.890;2023-10-31T03:07:29;5.80;;;1.63;;
47259;SDS011;32999;52.412;4.890;2023-10-31T03:12:30;3.53;;;1.40;;
47259;SDS011;32999;52.412;4.890;2023-10-31T03:17:32;1.60;;;0.60;;
47259;SDS011;32999;52.412;4.890;2023-10-31T03:22:35;3.28;;;1.10;;
47259;SDS011;32999;52.412;4.890;2023-10-31T03:27:36;1.63;;;0.98;;
47259;SDS011;32999;52.412;4.890;2023-10-31T03:32:38;3.85;;;0.73;;
47259;SDS011;32999;52.412;4.890;2023-10-31T03:37:40;2.20;;;0.70;;
47259;SDS011;32999;52.412;4.890;2023-10-31T03:42:42;2.67;;;0.75;;
47259;SDS011;32999;52.412;4.890;2023-10-31T03:47:43;3.92;;;0.80;;
47259;SDS011;32999;52.412;4.890;2023-10-31T03:52:46;6.57;;;1.60;;
47259;SDS011;32999;52.412;4.890;2023-10-31T03:57:48;3.63;;;1.00;;
47259;SDS011;32999;52.412;4.890;2023-10-31T04:02:49;3.85;;;0.80;;
47259;SDS011;32999;52.412;4.890;2023-10-31T04:07:52;8.30;;;2.05;;
47259;SDS011;32999;52.412;4.890;2023-10-31T04:12:54;6.40;;;1.30;;
47259;SDS011;32999;52.412;4.890;2023-10-31T04:17:55;12.65;;;1.05;;
47259;SDS011;32999;52.412;4.890;2023-10-31T04:22:58;4.30;;;0.80;;
47259;SDS011;32999;52.412;4.890;2023-10-31T04:27:59;6.60;;;1.23;;
47259;SDS011;32999;52.412;4.890;2023-10-31T04:33:01;8.07;;;2.00;;
47259;SDS011;32999;52.412;4.890;2023-10-31T04:38:04;4.63;;;0.70;;
47259;SDS011;32999;52.412;4.890;2023-10-31T04:43:05;10.30;;;1.00;;
47259;SDS011;32999;52.412;4.890;2023-10-31T04:48:07;8.70;;;0.98;;
47259;SDS011;32999;52.412;4.890;2023-10-31T04:53:09;2.42;;;0.98;;
47259;SDS011;32999;52.412;4.890;2023-10-31T04:58:11;2.40;;;0.88;;
47259;SDS011;32999;52.412;4.890;2023-10-31T05:03:12;7.97;;;2.88;;
47259;SDS011;32999;52.412;4.890;2023-10-31T05:08:19;3.35;;;2.30;;
47259;SDS011;32999;52.412;4.890;2023-10-31T05:13:21;4.82;;;0.98;;
47259;SDS011;32999;52.412;4.890;2023-10-31T05:18:22;6.30;;;1.20;;
47259;SDS011;32999;52.412;4.890;2023-10-31T05:23:25;3.22;;;0.93;;
47259;SDS011;32999;52.412;4.890;2023-10-31T05:28:27;0.60;;;0.60;;
47259;SDS011;32999;52.412;4.890;2023-10-31T05:33:28;3.13;;;1.45;;
47259;SDS011;32999;52.412;4.890;2023-10-31T05:38:31;5.38;;;1.02;;
47259;SDS011;32999;52.412;4.890;2023-10-31T05:43:32;5.03;;;0.90;;
47259;SDS011;32999;52.412;4.890;2023-10-31T05:48:34;7.03;;;1.23;;
47259;SDS011;32999;52.412;4.890;2023-10-31T05:53:37;5.38;;;1.17;;
47259;SDS011;32999;52.412;4.890;2023-10-31T05:58:39;4.22;;;1.20;;
47259;SDS011;32999;52.412;4.890;2023-10-31T06:03:41;4.20;;;1.25;;
47259;SDS011;32999;52.412;4.890;2023-10-31T06:08:45;6.68;;;1.05;;
47259;SDS011;32999;52.412;4.890;2023-10-31T06:13:46;3.20;;;0.80;;
47259;SDS011;32999;52.412;4.890;2023-10-31T06:18:49;4.60;;;1.17;;
47259;SDS011;32999;52.412;4.890;2023-10-31T06:23:51;8.10;;;1.60;;
47259;SDS011;32999;52.412;4.890;2023-10-31T06:28:53;7.20;;;1.40;;
47259;SDS011;32999;52.412;4.890;2023-10-31T06:33:54;9.35;;;1.38;;
47259;SDS011;32999;52.412;4.890;2023-10-31T06:38:57;7.38;;;1.33;;
47259;SDS011;32999;52.412;4.890;2023-10-31T06:43:59;3.28;;;1.35;;
47259;SDS011;32999;52.412;4.890;2023-10-31T06:49:01;3.97;;;1.60;;
47259;SDS011;32999;52.412;4.890;2023-10-31T06:54:03;4.45;;;1.45;;
47259;SDS011;32999;52.412;4.890;2023-10-31T06:59:05;3.47;;;1.10;;
47259;SDS011;32999;52.412;4.890;2023-10-31T07:04:06;5.80;;;1.85;;
47259;SDS011;32999;52.412;4.890;2023-10-31T07:09:09;3.15;;;1.38;;
47259;SDS011;32999;52.412;4.890;2023-10-31T07:14:11;3.03;;;1.40;;
47259;SDS011;32999;52.412;4.890;2023-10-31T07:19:12;3.03;;;1.42;;
47259;SDS011;32999;52.412;4.890;2023-10-31T07:24:15;6.53;;;1.65;;
47259;SDS011;32999;52.412;4.890;2023-10-31T07:29:17;6.57;;;2.03;;
47259;SDS011;32999;52.412;4.890;2023-10-31T07:34:18;3.63;;;1.60;;
47259;SDS011;32999;52.412;4.890;2023-10-31T07:39:21;6.43;;;2.25;;
47259;SDS011;32999;52.412;4.890;2023-10-31T07:44:23;8.88;;;2.40;;
47259;SDS011;32999;52.412;4.890;2023-10-31T07:49:24;8.25;;;2.20;;
47259;SDS011;32999;52.412;4.890;2023-10-31T07:54:27;8.10;;;2.13;;
47259;SDS011;32999;52.412;4.890;2023-10-31T07:59:28;4.20;;;2.10;;
47259;SDS011;32999;52.412;4.890;2023-10-31T08:04:30;3.05;;;1.80;;
47259;SDS011;32999;52.412;4.890;2023-10-31T08:09:33;6.03;;;2.58;;
47259;SDS011;32999;52.412;4.890;2023-10-31T08:14:35;7.35;;;1.70;;
47259;SDS011;32999;52.412;4.890;2023-10-31T08:19:36;6.15;;;2.30;;
47259;SDS011;32999;52.412;4.890;2023-10-31T08:24:39;9.73;;;2.67;;
47259;SDS011;32999;52.412;4.890;2023-10-31T08:29:41;8.05;;;2.50;;
47259;SDS011;32999;52.412;4.890;2023-10-31T08:34:42;8.20;;;2.42;;
47259;SDS011;32999;52.412;4.890;2023-10-31T08:39:45;5.03;;;2.90;;
47259;SDS011;32999;52.412;4.890;2023-10-31T08:44:46;9.43;;;3.17;;
47259;SDS011;32999;52.412;4.890;2023-10-31T08:49:48;5.75;;;2.45;;
47259;SDS011;32999;52.412;4.890;2023-10-31T08:54:51;9.07;;;2.70;;
47259;SDS011;32999;52.412;4.890;2023-10-31T08:59:52;10.43;;;3.10;;
47259;SDS011;32999;52.412;4.890;2023-10-31T09:04:54;10.30;;;3.13;;
47259;SDS011;32999;52.412;4.890;2023-10-31T09:09:57;9.23;;;2.85;;
47259;SDS011;32999;52.412;4.890;2023-10-31T09:14:58;8.80;;;3.45;;
47259;SDS011;32999;52.412;4.890;2023-10-31T09:19:59;3.55;;;2.15;;
47259;SDS011;32999;52.412;4.890;2023-10-31T09:25:03;3.90;;;2.03;;
47259;SDS011;32999;52.412;4.890;2023-10-31T09:30:05;7.55;;;2.40;;
47259;SDS011;32999;52.412;4.890;2023-10-31T09:35:07;5.85;;;2.10;;
47259;SDS011;32999;52.412;4.890;2023-10-31T09:40:10;4.32;;;2.80;;
47259;SDS011;32999;52.412;4.890;2023-10-31T09:45:11;6.20;;;2.85;;
47259;SDS011;32999;52.412;4.890;2023-10-31T09:50:13;7.15;;;2.30;;
47259;SDS011;32999;52.412;4.890;2023-10-31T09:55:16;6.22;;;2.20;;
47259;SDS011;32999;52.412;4.890;2023-10-31T10:00:17;6.07;;;1.88;;
47259;SDS011;32999;52.412;4.890;2023-10-31T10:05:19;3.28;;;1.67;;
47259;SDS011;32999;52.412;4.890;2023-10-31T10:10:22;3.40;;;1.60;;
47259;SDS011;32999;52.412;4.890;2023-10-31T10:15:23;3.42;;;1.80;;
47259;SDS011;32999;52.412;4.890;2023-10-31T10:20:25;5.30;;;2.30;;
47259;SDS011;32999;52.412;4.890;2023-10-31T10:25:28;3.65;;;1.65;;
47259;SDS011;32999;52.412;4.890;2023-10-31T10:30:29;5.65;;;1.45;;
47259;SDS011;32999;52.412;4.890;2023-10-31T10:35:31;2.95;;;1.60;;
47259;SDS011;32999;52.412;4.890;2023-10-31T10:40:35;3.30;;;1.95;;
47259;SDS011;32999;52.412;4.890;2023-10-31T10:45:37;4.30;;;1.80;;
47259;SDS011;32999;52.412;4.890;2023-10-31T10:50:41;4.22;;;1.67;;
47259;SDS011;32999;52.412;4.890;2023-10-31T10:55:44;1.63;;;1.50;;
47259;SDS011;32999;52.412;4.890;2023-10-31T11:00:46;5.72;;;1.33;;
47259;SDS011;32999;52.412;4.890;2023-10-31T11:05:48;5.45;;;1.10;;
47259;SDS011;32999;52.412;4.890;2023-10-31T11:10:51;2.80;;;1.60;;
47259;SDS011;32999;52.412;4.890;2023-10-31T11:15:55;2.23;;;1.50;;
47259;SDS011;32999;52.412;4.890;2023-10-31T11:20:58;5.93;;;1.90;;
47259;SDS011;32999;52.412;4.890;2023-10-31T11:26:01;1.65;;;1.55;;
47259;SDS011;32999;52.412;4.890;2023-10-31T11:31:03;2.53;;;1.98;;
47259;SDS011;32999;52.412;4.890;2023-10-31T11:36:05;3.63;;;1.95;;
47259;SDS011;32999;52.412;4.890;2023-10-31T11:41:07;3.83;;;1.70;;
47259;SDS011;32999;52.412;4.890;2023-10-31T11:46:17;2.53;;;2.10;;
47259;SDS011;32999;52.412;4.890;2023-10-31T11:51:19;4.10;;;2.22;;
47259;SDS011;32999;52.412;4.890;2023-10-31T11:56:22;3.70;;;1.80;;
47259;SDS011;32999;52.412;4.890;2023-10-31T12:01:23;5.07;;;1.67;;
47259;SDS011;32999;52.412;4.890;2023-10-31T12:06:25;3.17;;;1.50;;
47259;SDS011;32999;52.412;4.890;2023-10-31T12:11:28;5.28;;;1.67;;
47259;SDS011;32999;52.412;4.890;2023-10-31T12:16:30;3.15;;;1.40;;
47259;SDS011;32999;52.412;4.890;2023-10-31T12:21:38;1.90;;;1.40;;
47259;SDS011;32999;52.412;4.890;2023-10-31T12:26:42;6.57;;;2.75;;
47259;SDS011;32999;52.412;4.890;2023-10-31T12:31:45;5.17;;;1.37;;
47259;SDS011;32999;52.412;4.890;2023-10-31T12:36:47;0.95;;;0.95;;
47259;SDS011;32999;52.412;4.890;2023-10-31T12:41:50;2.45;;;0.90;;
47259;SDS011;32999;52.412;4.890;2023-10-31T12:46:52;3.10;;;1.50;;
47259;SDS011;32999;52.412;4.890;2023-10-31T12:51:57;3.75;;;0.80;;
47259;SDS011;32999;52.412;4.890;2023-10-31T12:57:01;4.35;;;1.50;;
47259;SDS011;32999;52.412;4.890;2023-10-31T13:02:04;2.88;;;0.90;;
47259;SDS011;32999;52.412;4.890;2023-10-31T13:07:06;3.33;;;1.35;;
47259;SDS011;32999;52.412;4.890;2023-10-31T13:12:09;4.22;;;1.65;;
47259;SDS011;32999;52.412;4.890;2023-10-31T13:17:12;1.40;;;1.30;;
47259;SDS011;32999;52.412;4.890;2023-10-31T13:22:13;6.78;;;1.27;;
47259;SDS011;32999;52.412;4.890;2023-10-31T13:27:16;3.72;;;1.42;;
47259;SDS011;32999;52.412;4.890;2023-10-31T13:32:17;2.17;;;1.60;;
47259;SDS011;32999;52.412;4.890;2023-10-31T13:37:20;3.72;;;1.80;;
47259;SDS011;32999;52.412;4.890;2023-10-31T13:42:23;5.82;;;2.45;;
47259;SDS011;32999;52.412;4.890;2023-10-31T13:47:25;8.05;;;2.05;;
47259;SDS011;32999;52.412;4.890;2023-10-31T13:52:29;6.33;;;2.50;;
47259;SDS011;32999;52.412;4.890;2023-10-31T13:57:32;10.35;;;2.88;;
47259;SDS011;32999;52.412;4.890;2023-10-31T14:02:34;4.63;;;1.52;;
47259;SDS011;32999;52.412;4.890;2023-10-31T14:07:35;7.05;;;1.63;;
47259;SDS011;32999;52.412;4.890;2023-10-31T14:12:38;3.53;;;1.70;;
47259;SDS011;32999;52.412;4.890;2023-10-31T14:17:39;9.75;;;3.28;;
47259;SDS011;32999;52.412;4.890;2023-10-31T14:22:46;8.65;;;2.10;;
47259;SDS011;32999;52.412;4.890;2023-10-31T14:27:49;5.95;;;2.55;;
47259;SDS011;32999;52.412;4.890;2023-10-31T14:32:50;4.65;;;2.28;;
47259;SDS011;32999;52.412;4.890;2023-10-31T14:37:52;3.92;;;1.83;;
47259;SDS011;32999;52.412;4.890;2023-10-31T14:42:54;12.25;;;2.33;;
47259;SDS011;32999;52.412;4.890;2023-10-31T14:47:56;5.13;;;1.98;;
47259;SDS011;32999;52.412;4.890;2023-10-31T14:52:58;9.30;;;1.90;;
47259;SDS011;32999;52.412;4.890;2023-10-31T14:58:00;6.10;;;1.83;;
47259;SDS011;32999;52.412;4.890;2023-10-31T15:03:02;3.15;;;1.10;;
47259;SDS011;32999;52.412;4.890;2023-10-31T15:08:04;6.78;;;2.00;;
47259;SDS011;32999;52.412;4.890;2023-10-31T15:13:07;6.20;;;1.48;;
47259;SDS011;32999;52.412;4.890;2023-10-31T15:18:09;7.82;;;2.90;;
47259;SDS011;32999;52.412;4.890;2023-10-31T15:23:10;7.85;;;2.63;;
47259;SDS011;32999;52.412;4.890;2023-10-31T15:28:15;6.00;;;2.17;;
47259;SDS011;32999;52.412;4.890;2023-10-31T15:33:17;8.07;;;2.85;;
47259;SDS011;32999;52.412;4.890;2023-10-31T15:38:18;5.35;;;2.17;;
47259;SDS011;32999;52.412;4.890;2023-10-31T15:43:21;6.68;;;3.03;;
47259;SDS011;32999;52.412;4.890;2023-10-31T15:48:22;4.88;;;2.95;;
47259;SDS011;32999;52.412;4.890;2023-10-31T15:53:24;10.63;;;4.10;;
47259;SDS011;32999;52.412;4.890;2023-10-31T15:58:29;6.88;;;3.30;;
47259;SDS011;32999;52.412;4.890;2023-10-31T16:03:30;7.93;;;4.85;;
47259;SDS011;32999;52.412;4.890;2023-10-31T16:08:32;15.75;;;5.55;;
47259;SDS011;32999;52.412;4.890;2023-10-31T16:13:35;7.25;;;3.33;;
47259;SDS011;32999;52.412;4.890;2023-10-31T16:18:37;7.03;;;3.75;;
47259;SDS011;32999;52.412;4.890;2023-10-31T16:23:38;10.75;;;3.22;;
47259;SDS011;32999;52.412;4.890;2023-10-31T16:28:42;8.80;;;3.50;;
47259;SDS011;32999;52.412;4.890;2023-10-31T16:33:45;5.82;;;3.45;;
47259;SDS011;32999;52.412;4.890;2023-10-31T16:39:02;6.60;;;4.13;;
47259;SDS011;32999;52.412;4.890;2023-10-31T16:44:05;5.28;;;3.47;;
47259;SDS011;32999;52.412;4.890;2023-10-31T16:49:07;7.32;;;4.20;;
47259;SDS011;32999;52.412;4.890;2023-10-31T16:54:08;9.65;;;4.90;;
47259;SDS011;32999;52.412;4.890;2023-10-31T16:59:11;10.85;;;5.45;;
47259;SDS011;32999;52.412;4.890;2023-10-31T17:04:13;13.13;;;6.32;;
47259;SDS011;32999;52.412;4.890;2023-10-31T17:09:15;15.38;;;6.60;;
47259;SDS011;32999;52.412;4.890;2023-10-31T17:14:18;11.85;;;6.70;;
47259;SDS011;32999;52.412;4.890;2023-10-31T17:19:19;20.00;;;6.95;;
47259;SDS011;32999;52.412;4.890;2023-10-31T17:24:21;22.55;;;9.23;;
47259;SDS011;32999;52.412;4.890;2023-10-31T17:29:23;22.95;;;10.80;;
47259;SDS011;32999;52.412;4.890;2023-10-31T17:34:25;21.73;;;10.32;;
47259;SDS011;32999;52.412;4.890;2023-10-31T17:39:26;27.63;;;13.48;;
47259;SDS011;32999;52.412;4.890;2023-10-31T17:44:29;25.70;;;12.73;;
47259;SDS011;32999;52.412;4.890;2023-10-31T17:49:31;23.45;;;11.60;;
47259;SDS011;32999;52.412;4.890;2023-10-31T17:54:33;28.23;;;12.63;;
47259;SDS011;32999;52.412;4.890;2023-10-31T17:59:37;28.20;;;13.13;;
47259;SDS011;32999;52.412;4.890;2023-10-31T18:04:38;30.25;;;13.57;;
47259;SDS011;32999;52.412;4.890;2023-10-31T18:09:40;30.25;;;13.50;;
47259;SDS011;32999;52.412;4.890;2023-10-31T18:14:43;25.08;;;13.02;;
47259;SDS011;32999;52.412;4.890;2023-10-31T18:19:44;30.85;;;12.40;;
47259;SDS011;32999;52.412;4.890;2023-10-31T18:24:46;26.40;;;12.75;;
47259;SDS011;32999;52.412;4.890;2023-10-31T18:29:51;26.65;;;13.05;;
47259;SDS011;32999;52.412;4.890;2023-10-31T18:34:53;28.00;;;13.05;;
47259;SDS011;32999;52.412;4.890;2023-10-31T18:39:55;31.65;;;14.07;;
47259;SDS011;32999;52.412;4.890;2023-10-31T18:44:58;25.23;;;12.82;;
47259;SDS011;32999;52.412;4.890;2023-10-31T18:50:00;25.25;;;12.35;;
47259;SDS011;32999;52.412;4.890;2023-10-31T18:55:02;27.60;;;13.45;;
47259;SDS011;32999;52.412;4.890;2023-10-31T19:00:05;28.80;;;13.77;;
47259;SDS011;32999;52.412;4.890;2023-10-31T19:05:07;30.15;;;14.32;;
47259;SDS011;32999;52.412;4.890;2023-10-31T19:10:09;28.20;;;14.52;;
47259;SDS011;32999;52.412;4.890;2023-10-31T19:15:12;28.80;;;14.32;;
47259;SDS011;32999;52.412;4.890;2023-10-31T19:20:13;26.42;;;13.68;;
47259;SDS011;32999;52.412;4.890;2023-10-31T19:25:15;29.27;;;14.27;;
47259;SDS011;32999;52.412;4.890;2023-10-31T19:30:18;25.92;;;13.80;;
47259;SDS011;32999;52.412;4.890;2023-10-31T19:35:20;36.53;;;14.82;;
47259;SDS011;32999;52.412;4.890;2023-10-31T19:40:23;30.50;;;13.10;;
47259;SDS011;32999;52.412;4.890;2023-10-31T19:45:30;37.42;;;15.00;;
47259;SDS011;32999;52.412;4.890;2023-10-31T19:50:31;46.22;;;15.95;;
47259;SDS011;32999;52.412;4.890;2023-10-31T19:55:33;26.92;;;14.77;;
47259;SDS011;32999;52.412;4.890;2023-10-31T20:00:36;30.13;;;14.45;;
47259;SDS011;32999;52.412;4.890;2023-10-31T20:05:37;31.27;;;16.00;;
47259;SDS011;32999;52.412;4.890;2023-10-31T20:10:40;28.98;;;13.93;;
47259;SDS011;32999;52.412;4.890;2023-10-31T20:15:43;32.15;;;16.40;;
47259;SDS011;32999;52.412;4.890;2023-10-31T20:20:44;35.97;;;17.95;;
47259;SDS011;32999;52.412;4.890;2023-10-31T20:25:46;25.33;;;15.40;;
47259;SDS011;32999;52.412;4.890;2023-10-31T20:30:49;29.05;;;15.63;;
47259;SDS011;32999;52.412;4.890;2023-10-31T20:35:50;25.98;;;14.30;;
47259;SDS011;32999;52.412;4.890;2023-10-31T20:40:52;25.58;;;14.35;;
47259;SDS011;32999;52.412;4.890;2023-10-31T20:45:56;26.65;;;13.45;;
47259;SDS011;32999;52.412;4.890;2023-10-31T20:50:57;20.27;;;10.43;;
47259;SDS011;32999;52.412;4.890;2023-10-31T20:55:59;12.77;;;8.75;;
47259;SDS011;32999;52.412;4.890;2023-10-31T21:01:04;8.83;;;5.77;;
47259;SDS011;32999;52.412;4.890;2023-10-31T21:06:07;8.77;;;5.35;;
47259;SDS011;32999;52.412;4.890;2023-10-31T21:11:09;7.68;;;5.10;;
47259;SDS011;32999;52.412;4.890;2023-10-31T21:16:11;5.78;;;4.05;;
47259;SDS011;32999;52.412;4.890;2023-10-31T21:21:13;6.93;;;3.38;;
47259;SDS011;32999;52.412;4.890;2023-10-31T21:26:14;7.47;;;4.13;;
47259;SDS011;32999;52.412;4.890;2023-10-31T21:31:17;3.58;;;2.33;;
47259;SDS011;32999;52.412;4.890;2023-10-31T21:36:19;3.28;;;1.88;;
47259;SDS011;32999;52.412;4.890;2023-10-31T21:41:20;1.92;;;1.55;;
47259;SDS011;32999;52.412;4.890;2023-10-31T21:46:23;1.70;;;1.60;;
47259;SDS011;32999;52.412;4.890;2023-10-31T21:51:24;3.40;;;1.73;;
47259;SDS011;32999;52.412;4.890;2023-10-31T21:56:26;2.03;;;1.60;;
47259;SDS011;32999;52.412;4.890;2023-10-31T22:01:29;3.08;;;2.17;;
47259;SDS011;32999;52.412;4.890;2023-10-31T22:06:30;3.05;;;2.10;;
47259;SDS011;32999;52.412;4.890;2023-10-31T22:11:31;3.30;;;2.28;;
47259;SDS011;32999;52.412;4.890;2023-10-31T22:16:34;3.50;;;2.20;;
47259;SDS011;32999;52.412;4.890;2023-10-31T22:21:36;4.57;;;2.30;;
47259;SDS011;32999;52.412;4.890;2023-10-31T22:26:37;3.33;;;2.15;;
47259;SDS011;32999;52.412;4.890;2023-10-31T22:31:40;3.72;;;2.80;;
47259;SDS011;32999;52.412;4.890;2023-10-31T22:36:42;4.88;;;2.22;;
47259;SDS011;32999;52.412;4.890;2023-10-31T22:41:43;4.90;;;3.20;;
47259;SDS011;32999;52.412;4.890;2023-10-31T22:46:46;3.50;;;2.78;;
47259;SDS011;32999;52.412;4.890;2023-10-31T22:51:48;6.35;;;3.50;;
47259;SDS011;32999;52.412;4.890;2023-10-31T22:56:49;5.47;;;3.70;;
47259;SDS011;32999;52.412;4.890;2023-10-31T23:01:52;5.88;;;3.05;;
47259;SDS011;32999;52.412;4.890;2023-10-31T23:11:57;3.67;;;2.33;;
47259;SDS011;32999;52.412;4.890;2023-10-31T23:17:00;5.43;;;2.42;;
47259;SDS011;32999;52.412;4.890;2023-10-31T23:22:01;5.63;;;2.88;;
47259;SDS011;32999;52.412;4.890;2023-10-31T23:27:03;6.53;;;3.53;;
47259;SDS011;32999;52.412;4.890;2023-10-31T23:32:07;12.25;;;4.05;;
47259;SDS011;32999;52.412;4.890;2023-10-31T23:37:08;8.35;;;3.33;;
47259;SDS011;32999;52.412;4.890;2023-10-31T23:42:09;8.73;;;3.70;;
47259;SDS011;32999;52.412;4.890;2023-10-31T23:47:12;10.73;;;4.05;;
47259;SDS011;32999;52.412;4.890;2023-10-31T23:52:14;21.08;;;4.93;;
47259;SDS011;32999;52.412;4.890;2023-10-31T23:57:15;10.00;;;3.85;;
